Time;durP1;ratioP1;P1;durP2;ratioP2;P2;SDS_P1;SDS_P2;PMS_P1;PMS_P2;Temp;Humidity;BMP_temperature;BMP_pressure;BME280_temperature;BME280_humidity;BME280_pressure;Samples;Min_cycle;Max_cycle;Signal;HPM_P1;HPM_P2
2021/06/19 00:02:15;;;;;;;10.20;7.63;;;;;;;20.70;65.01;99011.00;5078016;28;20043;-94
2021/06/19 00:04:41;;;;;;;12.45;8.40;;;;;;;20.71;65.27;99024.44;5076043;28;20045;-94
2021/06/19 00:07:07;;;;;;;12.88;7.95;;;;;;;20.68;64.95;99012.94;5084997;28;20068;-94
2021/06/19 00:09:34;;;;;;;12.23;8.02;;;;;;;20.77;65.47;99014.19;5075582;28;20105;-94
2021/06/19 00:12:01;;;;;;;11.93;8.02;;;;;;;20.78;65.51;99022.19;5076665;28;20094;-95
2021/06/19 00:14:27;;;;;;;12.65;8.05;;;;;;;20.52;66.20;98992.28;5075864;28;20071;-93
2021/06/19 00:16:53;;;;;;;10.02;7.88;;;;;;;20.39;66.79;99001.28;5075050;28;20032;-94
2021/06/19 00:19:19;;;;;;;12.30;8.13;;;;;;;20.27;66.82;99008.31;5075372;28;20535;-95
2021/06/19 00:21:46;;;;;;;12.20;8.27;;;;;;;20.11;67.89;99003.00;5076029;28;20123;-94
2021/06/19 00:24:19;;;;;;;14.63;8.77;;;;;;;19.80;68.67;99010.31;5076390;28;20530;-94
2021/06/19 00:26:47;;;;;;;18.17;10.07;;;;;;;19.79;68.93;99007.69;5078674;28;20040;-94
2021/06/19 00:29:12;;;;;;;11.67;8.00;;;;;;;19.82;69.25;99024.59;5076290;28;20437;-95
2021/06/19 00:31:38;;;;;;;13.18;9.18;;;;;;;19.55;70.34;99012.72;5066755;28;20041;-94
2021/06/19 00:34:04;;;;;;;12.80;9.05;;;;;;;19.58;71.44;99028.72;5077885;28;20052;-95
2021/06/19 00:36:30;;;;;;;13.52;8.95;;;;;;;19.54;71.07;99035.25;5084509;28;20093;-95
2021/06/19 00:38:56;;;;;;;13.45;9.25;;;;;;;19.35;70.96;99022.00;5077148;28;20046;-94
2021/06/19 00:41:23;;;;;;;13.65;8.65;;;;;;;19.34;70.97;99020.25;5086265;28;20400;-95
2021/06/19 00:43:50;;;;;;;12.55;9.13;;;;;;;19.16;71.74;99006.91;5092932;28;20077;-96
2021/06/19 00:46:16;;;;;;;11.80;9.15;;;;;;;19.09;72.03;99009.09;5070481;28;20044;-93
2021/06/19 00:48:42;;;;;;;14.23;9.52;;;;;;;19.28;71.85;99022.38;5085750;28;20098;-93
2021/06/19 00:51:08;;;;;;;14.85;8.65;;;;;;;19.17;72.57;99023.94;5080017;28;20059;-94
2021/06/19 00:53:34;;;;;;;12.82;9.30;;;;;;;19.08;72.50;99022.63;5080041;28;20105;-94
2021/06/19 00:56:00;;;;;;;15.95;8.75;;;;;;;19.12;72.31;99031.44;5080779;28;20040;-94
2021/06/19 00:58:26;;;;;;;13.55;9.20;;;;;;;19.16;72.48;99041.09;5079102;28;20056;-94
2021/06/19 01:00:53;;;;;;;14.55;9.43;;;;;;;19.13;73.09;99039.44;5074053;28;20067;-93
2021/06/19 01:03:19;;;;;;;13.00;9.05;;;;;;;19.06;73.22;99033.53;5076516;28;20059;-94
2021/06/19 01:05:45;;;;;;;13.75;9.48;;;;;;;18.98;73.70;99032.25;5085637;28;20068;-94
2021/06/19 01:08:11;;;;;;;14.70;9.48;;;;;;;19.00;73.36;99028.50;5079344;28;20123;-95
2021/06/19 01:10:37;;;;;;;13.38;9.23;;;;;;;18.96;73.05;99040.41;5076903;28;20063;-94
2021/06/19 01:13:04;;;;;;;15.07;9.70;;;;;;;18.98;72.99;99046.56;5078651;28;20056;-95
2021/06/19 01:15:30;;;;;;;16.20;9.77;;;;;;;18.87;73.83;99030.16;5074157;28;20037;-95
2021/06/19 01:17:57;;;;;;;14.15;9.25;;;;;;;18.94;74.01;99045.00;5081799;28;20100;-94
2021/06/19 01:20:25;;;;;;;13.25;9.43;;;;;;;18.99;73.74;99037.50;5092116;28;20081;-95
2021/06/19 01:22:53;;;;;;;19.05;10.25;;;;;;;18.97;74.26;99034.03;5081146;28;20032;-94
2021/06/19 01:25:22;;;;;;;20.23;10.05;;;;;;;18.95;73.92;99032.41;5085275;28;20047;-94
2021/06/19 01:27:52;;;;;;;13.88;10.32;;;;;;;18.85;74.15;99030.22;5075924;28;20097;-95
2021/06/19 01:30:20;;;;;;;15.45;9.60;;;;;;;18.90;73.57;99034.50;5078070;28;20484;-93
2021/06/19 01:32:46;;;;;;;13.38;9.43;;;;;;;18.90;73.80;99038.06;5075371;28;20072;-93
2021/06/19 01:35:13;;;;;;;12.93;9.13;;;;;;;18.83;73.29;99045.63;5087735;28;20040;-94
2021/06/19 01:37:43;;;;;;;14.50;9.27;;;;;;;18.82;73.36;99061.84;5088281;28;20429;-95
2021/06/19 01:40:11;;;;;;;12.75;9.10;;;;;;;18.71;73.46;99046.25;5074151;28;20045;-94
2021/06/19 01:42:40;;;;;;;14.55;9.70;;;;;;;18.78;73.20;99065.69;5074156;28;20040;-93
2021/06/19 01:45:11;;;;;;;14.88;10.07;;;;;;;18.65;73.79;99058.28;5073437;28;20075;-94
2021/06/19 01:47:37;;;;;;;14.68;9.43;;;;;;;18.76;73.90;99072.94;5078722;28;20075;-94
2021/06/19 01:50:05;;;;;;;13.88;9.20;;;;;;;18.75;73.44;99066.69;5081155;28;20453;-94
2021/06/19 01:52:31;;;;;;;12.52;8.90;;;;;;;18.66;73.34;99051.06;5078381;28;20087;-94
2021/06/19 01:54:57;;;;;;;16.58;9.90;;;;;;;18.56;74.22;99049.81;5075388;28;20040;-95
2021/06/19 01:57:23;;;;;;;15.90;9.23;;;;;;;18.70;73.92;99076.00;5073826;28;20041;-94
2021/06/19 01:59:59;;;;;;;14.80;9.20;;;;;;;18.52;74.54;99064.41;5073518;28;20045;-93
2021/06/19 02:02:25;;;;;;;15.27;9.35;;;;;;;18.58;74.62;99082.91;5065640;28;20119;-94
2021/06/19 02:04:51;;;;;;;15.75;9.20;;;;;;;18.48;74.35;99066.41;5075253;28;20072;-95
2021/06/19 02:07:17;;;;;;;13.48;9.35;;;;;;;18.44;73.96;99070.22;5075566;28;20426;-93
2021/06/19 02:09:43;;;;;;;14.02;9.60;;;;;;;18.35;74.55;99062.66;5074937;28;20055;-94
2021/06/19 02:12:09;;;;;;;13.88;9.15;;;;;;;18.42;75.04;99089.16;5073805;28;20040;-94
2021/06/19 02:14:36;;;;;;;14.70;9.45;;;;;;;18.40;74.95;99093.75;5075387;28;20044;-93
2021/06/19 02:17:03;;;;;;;17.08;9.50;;;;;;;18.24;75.57;99084.75;5077706;28;20067;-93
2021/06/19 02:19:29;;;;;;;15.18;9.48;;;;;;;18.15;75.79;99069.97;5077715;28;20117;-94
2021/06/19 02:21:55;;;;;;;15.10;9.43;;;;;;;18.23;76.33;99089.25;5077641;28;20090;-94
2021/06/19 02:24:21;;;;;;;13.57;9.77;;;;;;;18.21;76.69;99098.38;5077624;28;20162;-94
2021/06/19 02:26:48;;;;;;;12.80;9.52;;;;;;;18.15;76.75;99094.19;5077623;28;20037;-94
2021/06/19 02:29:14;;;;;;;15.30;9.57;;;;;;;18.03;76.98;99090.31;5077312;28;20048;-95
2021/06/19 02:31:39;;;;;;;14.38;9.68;;;;;;;18.17;76.93;99110.25;5076865;28;20044;-94
2021/06/19 02:34:07;;;;;;;15.35;9.43;;;;;;;18.12;77.11;99113.19;5077178;28;20421;-93
2021/06/19 02:36:33;;;;;;;14.82;9.98;;;;;;;17.98;76.90;99088.84;5077817;28;20445;-94
2021/06/19 02:38:59;;;;;;;15.05;10.40;;;;;;;18.08;77.01;99106.22;5077763;28;20044;-94
2021/06/19 02:41:24;;;;;;;14.90;10.13;;;;;;;17.95;77.53;99095.22;5078591;28;20040;-93
2021/06/19 02:43:50;;;;;;;15.75;10.07;;;;;;;17.93;78.11;99102.50;5078775;28;20100;-95
2021/06/19 02:46:16;;;;;;;16.48;10.77;;;;;;;17.83;78.31;99101.25;5077846;28;20051;-94
2021/06/19 02:48:42;;;;;;;17.10;10.48;;;;;;;17.74;78.19;99097.19;5078166;28;20041;-94
2021/06/19 02:51:10;;;;;;;17.05;10.55;;;;;;;17.89;77.91;99116.19;5078496;28;20051;-95
2021/06/19 02:53:36;;;;;;;16.55;11.98;;;;;;;17.76;78.71;99111.44;5078305;28;20482;-94
2021/06/19 02:56:01;;;;;;;16.92;10.43;;;;;;;17.71;79.00;99118.84;5077080;28;20114;-93
2021/06/19 02:58:27;;;;;;;18.67;10.90;;;;;;;17.64;78.93;99106.66;5077059;28;20074;-95
2021/06/19 03:00:54;;;;;;;21.95;11.90;;;;;;;17.56;79.94;99108.88;5076703;28;20033;-93
2021/06/19 03:03:20;;;;;;;16.17;10.70;;;;;;;17.57;79.80;99107.94;5077224;28;20497;-94
2021/06/19 03:05:47;;;;;;;16.02;10.95;;;;;;;17.44;79.46;99089.72;5077278;28;20056;-94
2021/06/19 03:08:15;;;;;;;17.40;11.90;;;;;;;17.52;79.16;99108.16;5078130;28;20045;-93
2021/06/19 03:10:41;;;;;;;19.75;11.02;;;;;;;17.62;79.03;99109.41;5078757;28;20498;-93
2021/06/19 03:13:07;;;;;;;17.08;11.18;;;;;;;17.56;79.62;99111.56;5077234;28;20091;-94
2021/06/19 03:15:33;;;;;;;17.48;11.15;;;;;;;17.61;78.97;99109.53;5077130;28;20435;-93
2021/06/19 03:17:59;;;;;;;19.38;10.80;;;;;;;17.59;79.33;99111.41;5078363;28;20556;-93
2021/06/19 03:20:25;;;;;;;18.20;10.90;;;;;;;17.52;79.68;99118.03;5076623;28;20097;-94
2021/06/19 03:22:53;;;;;;;20.42;11.75;;;;;;;17.50;79.56;99117.22;5077063;28;20067;-94
2021/06/19 03:25:23;;;;;;;18.70;11.00;;;;;;;17.43;79.97;99104.09;5076263;28;20047;-95
2021/06/19 03:27:49;;;;;;;17.90;11.65;;;;;;;17.44;79.56;99096.91;5076970;28;20128;-94
2021/06/19 03:30:17;;;;;;;15.15;11.07;;;;;;;17.40;79.78;99090.81;5076868;28;20048;-94
2021/06/19 03:32:43;;;;;;;17.27;11.33;;;;;;;17.37;79.76;99084.69;5078114;28;20476;-94
2021/06/19 03:35:10;;;;;;;18.40;11.35;;;;;;;17.34;79.97;99074.97;5077043;28;20128;-96
2021/06/19 03:37:36;;;;;;;21.83;10.98;;;;;;;17.32;79.83;99068.81;5076307;28;20095;-95
2021/06/19 03:40:04;;;;;;;16.08;11.13;;;;;;;17.39;79.78;99070.25;5076475;28;20052;-95
2021/06/19 03:42:32;;;;;;;17.57;10.97;;;;;;;17.49;79.80;99085.94;5076998;28;20528;-95
2021/06/19 03:44:58;;;;;;;17.05;10.48;;;;;;;17.54;79.69;99087.41;5076300;28;20144;-93
2021/06/19 03:47:24;;;;;;;16.95;10.75;;;;;;;17.41;79.93;99064.78;5075668;28;20158;-94
2021/06/19 03:49:50;;;;;;;16.05;10.80;;;;;;;17.40;79.64;99061.25;5076607;28;20490;-93
2021/06/19 03:52:16;;;;;;;17.65;11.18;;;;;;;17.57;79.46;99075.66;5076509;28;20045;-94
2021/06/19 03:54:41;;;;;;;16.27;10.98;;;;;;;17.58;79.46;99080.94;5076199;28;20448;-94
2021/06/19 03:57:08;;;;;;;17.80;10.32;;;;;;;17.59;79.35;99074.63;5076357;28;20040;-93
2021/06/19 03:59:36;;;;;;;14.43;10.73;;;;;;;17.57;78.96;99063.06;5075954;28;20101;-94
2021/06/19 04:02:02;;;;;;;17.23;11.43;;;;;;;17.63;78.94;99067.25;5075815;28;20498;-93
2021/06/19 04:04:28;;;;;;;18.48;10.75;;;;;;;17.81;78.89;99087.84;5075734;28;20048;-93
2021/06/19 04:06:54;;;;;;;18.25;10.65;;;;;;;17.78;78.73;99071.88;5075695;28;20062;-94
2021/06/19 04:09:20;;;;;;;14.32;10.50;;;;;;;17.82;78.44;99065.38;5075715;28;20124;-94
2021/06/19 04:11:46;;;;;;;14.93;10.38;;;;;;;18.06;77.94;99090.16;5075811;28;20090;-95
2021/06/19 04:14:11;;;;;;;17.70;10.48;;;;;;;18.11;78.03;99084.53;5075673;28;20040;-92
2021/06/19 04:16:39;;;;;;;16.95;10.32;;;;;;;18.16;77.98;99087.84;5076142;28;20131;-94
2021/06/19 04:19:05;;;;;;;17.13;10.48;;;;;;;18.25;77.65;99081.97;5077246;28;20037;-94
2021/06/19 04:21:30;;;;;;;19.58;13.23;;;;;;;18.28;77.55;99083.63;5075611;28;20067;-95
2021/06/19 04:23:56;;;;;;;15.85;10.35;;;;;;;18.35;77.82;99095.81;5082585;28;20139;-94
2021/06/19 04:26:22;;;;;;;16.00;10.40;;;;;;;18.33;77.69;99078.00;5096526;28;20082;-94
2021/06/19 04:28:48;;;;;;;15.32;10.82;;;;;;;18.48;77.33;99086.13;5097789;28;20056;-95
2021/06/19 04:31:14;;;;;;;13.75;10.27;;;;;;;18.59;76.57;99074.75;5080689;28;20045;-93
2021/06/19 04:33:41;;;;;;;15.50;10.50;;;;;;;18.65;76.13;99079.81;5075253;28;20036;-94
2021/06/19 04:36:08;;;;;;;16.15;10.38;;;;;;;18.56;76.75;99064.13;5074731;28;20167;-93
2021/06/19 04:38:34;;;;;;;17.90;10.38;;;;;;;18.64;76.26;99055.66;5075125;28;20052;-92
2021/06/19 04:44:18;;;;;;;17.50;12.57;;;;;;;18.77;76.42;99062.09;5147744;27;20410;-95
2021/06/19 04:46:44;;;;;;;15.27;10.52;;;;;;;18.84;76.28;99068.03;5127051;27;20140;-95
2021/06/19 04:49:10;;;;;;;18.02;10.85;;;;;;;18.87;75.84;99051.72;5111984;28;20038;-95
2021/06/19 04:51:36;;;;;;;18.02;10.52;;;;;;;19.28;74.38;99062.81;5111909;28;20131;-93
2021/06/19 04:54:02;;;;;;;14.95;10.43;;;;;;;19.69;72.30;99066.69;5111871;28;20071;-95
2021/06/19 04:56:27;;;;;;;14.18;10.52;;;;;;;19.88;71.23;99053.00;5112044;28;20039;-95
2021/06/19 04:58:53;;;;;;;13.73;9.70;;;;;;;20.29;71.26;99069.34;5111685;28;20123;-95
2021/06/19 05:01:21;;;;;;;15.38;10.07;;;;;;;20.78;68.89;99064.56;5111298;28;20527;-95
2021/06/19 05:03:46;;;;;;;15.70;9.85;;;;;;;21.10;68.33;99068.75;5111938;28;20076;-94
2021/06/19 05:06:12;;;;;;;14.80;10.13;;;;;;;21.54;65.69;99069.50;5111893;28;20083;-96
2021/06/19 05:08:39;;;;;;;15.35;9.52;;;;;;;22.03;63.32;99052.59;5111850;28;20131;-95
2021/06/19 05:11:05;;;;;;;15.00;9.20;;;;;;;22.46;61.71;99046.88;5111709;28;20046;-93
2021/06/19 05:13:31;;;;;;;14.27;9.75;;;;;;;22.87;59.99;99055.72;5112421;28;20039;-95
2021/06/19 05:15:57;;;;;;;14.13;9.20;;;;;;;23.15;59.33;99055.44;5111400;28;20052;-96
2021/06/19 05:18:24;;;;;;;15.75;9.10;;;;;;;23.32;58.48;99053.31;5111909;28;20048;-93
2021/06/19 05:20:50;;;;;;;13.55;9.23;;;;;;;23.60;57.64;99064.81;5111510;28;20059;-93
2021/06/19 05:23:16;;;;;;;14.68;9.20;;;;;;;23.63;57.84;99053.69;5111283;28;20032;-92
2021/06/19 05:25:41;;;;;;;17.05;9.35;;;;;;;23.54;57.47;99049.84;5111233;28;20062;-93
2021/06/19 05:28:07;;;;;;;12.35;9.20;;;;;;;23.53;57.75;99064.38;5111370;28;20050;-95
2021/06/19 05:30:33;;;;;;;12.82;8.63;;;;;;;23.62;57.32;99054.69;5110789;28;20047;-94
2021/06/19 05:32:59;;;;;;;14.90;9.50;;;;;;;23.60;57.85;99067.53;5111271;28;20554;-94
2021/06/19 05:35:26;;;;;;;14.25;9.77;;;;;;;23.51;57.70;99042.81;5111229;28;20089;-90
2021/06/19 05:37:52;;;;;;;13.52;9.35;;;;;;;23.53;57.55;99046.25;5111359;28;20054;-94
2021/06/19 05:40:18;;;;;;;13.93;9.10;;;;;;;23.88;56.49;99045.44;5111642;28;20131;-94
2021/06/19 05:42:44;;;;;;;15.55;9.23;;;;;;;24.20;55.17;99020.28;5111347;28;20066;-95
2021/06/19 05:45:11;;;;;;;18.50;9.93;;;;;;;24.35;55.18;99031.78;5111091;28;20397;-96
2021/06/19 05:47:37;;;;;;;13.02;9.23;;;;;;;24.30;54.74;99024.00;5110977;28;20060;-93
2021/06/19 05:50:04;;;;;;;16.40;9.55;;;;;;;24.09;56.02;99017.56;5111069;28;20477;-94
2021/06/19 05:52:31;;;;;;;15.65;9.77;;;;;;;23.93;57.07;99029.63;5111069;28;20130;-92
2021/06/19 05:54:57;;;;;;;16.52;10.02;;;;;;;23.97;57.60;99035.69;5099178;28;20044;-95
2021/06/19 05:57:23;;;;;;;15.82;9.80;;;;;;;24.33;56.22;99022.88;5098589;28;20048;-92
2021/06/19 05:59:49;;;;;;;12.30;9.25;;;;;;;24.35;56.42;99016.38;5097074;28;20050;-94
2021/06/19 06:02:15;;;;;;;13.02;9.93;;;;;;;23.34;58.38;99003.38;5097360;28;20071;-93
2021/06/19 06:04:42;;;;;;;14.30;9.80;;;;;;;22.84;59.96;99009.84;5096401;28;20044;-94
2021/06/19 06:07:08;;;;;;;16.00;10.20;;;;;;;23.08;59.21;99001.75;5096694;28;20048;-93
2021/06/19 06:09:35;;;;;;;16.30;10.27;;;;;;;22.64;61.18;99024.84;5097004;28;20089;-93
2021/06/19 06:12:01;;;;;;;14.52;9.75;;;;;;;22.45;62.41;99025.31;5096813;28;20090;-94
2021/06/19 06:14:27;;;;;;;16.95;9.38;;;;;;;22.75;61.21;99012.25;5097095;28;20036;-96
2021/06/19 06:16:53;;;;;;;13.52;9.50;;;;;;;22.81;60.65;99018.19;5096449;28;20557;-95
2021/06/19 06:19:21;;;;;;;16.50;10.98;;;;;;;23.11;59.45;99017.78;5096498;28;20048;-93
2021/06/19 06:21:48;;;;;;;15.50;9.83;;;;;;;23.77;56.75;99010.97;5096938;28;20040;-95
2021/06/19 06:24:13;;;;;;;13.73;10.07;;;;;;;24.45;55.38;99030.06;5096969;28;20044;-93
2021/06/19 06:26:42;;;;;;;13.38;9.48;;;;;;;24.90;53.79;99013.75;5096828;28;20151;-93
2021/06/19 06:29:08;;;;;;;13.25;9.27;;;;;;;25.34;53.04;99038.28;5093352;28;20042;-95
2021/06/19 06:31:34;;;;;;;16.58;9.82;;;;;;;25.30;51.71;99012.31;5096298;28;20482;-95
2021/06/19 06:34:00;;;;;;;13.63;9.90;;;;;;;24.98;52.49;99000.41;5096313;28;20412;-95
2021/06/19 06:36:26;;;;;;;15.85;9.50;;;;;;;25.20;53.16;99023.13;5096563;28;20032;-94
2021/06/19 06:38:52;;;;;;;14.65;9.23;;;;;;;25.72;51.80;99015.09;5096322;28;20098;-95
2021/06/19 06:41:18;;;;;;;13.38;9.10;;;;;;;26.20;50.27;99014.63;5096501;28;20389;-93
2021/06/19 06:43:45;;;;;;;12.40;9.32;;;;;;;25.79;50.63;99010.88;5096336;28;20047;-94
2021/06/19 06:46:11;;;;;;;13.25;9.65;;;;;;;25.16;52.31;99000.72;5096866;28;20036;-95
2021/06/19 06:48:37;;;;;;;13.32;9.43;;;;;;;25.28;52.99;99023.34;5103303;28;20051;-96
2021/06/19 06:51:03;;;;;;;16.02;9.70;;;;;;;25.25;52.98;98998.25;5098772;28;20493;-94
2021/06/19 06:53:29;;;;;;;15.50;9.43;;;;;;;25.16;53.22;99003.44;5101048;28;20390;-96
2021/06/19 06:55:55;;;;;;;15.95;10.30;;;;;;;25.27;53.02;98997.13;5105156;28;20139;-96
2021/06/19 06:58:21;;;;;;;17.13;9.40;;;;;;;25.04;53.71;99009.88;5103766;28;20047;-96
2021/06/19 07:00:48;;;;;;;13.18;9.88;;;;;;;24.96;54.34;99012.38;5102166;28;20075;-96
2021/06/19 07:03:14;;;;;;;12.40;9.32;;;;;;;25.21;53.74;98986.75;5098407;28;20040;-95
2021/06/19 07:05:40;;;;;;;13.77;9.88;;;;;;;25.71;52.33;98978.84;5100487;28;20508;-96
2021/06/19 07:08:06;;;;;;;14.98;9.48;;;;;;;26.35;50.66;98976.94;5099060;28;20036;-95
2021/06/19 07:10:32;;;;;;;12.90;9.75;;;;;;;26.59;49.91;98982.09;5101657;28;20103;-94
2021/06/19 07:12:58;;;;;;;15.70;9.60;;;;;;;25.00;53.56;99013.84;5112858;28;20496;-94
2021/06/19 07:15:24;;;;;;;18.77;9.80;;;;;;;24.70;55.20;98992.75;5097860;28;20428;-96
2021/06/19 07:17:51;;;;;;;13.90;9.30;;;;;;;24.69;55.35;98991.03;5112589;28;20047;-95
2021/06/19 07:20:18;;;;;;;15.20;9.88;;;;;;;25.21;54.13;99009.38;5117957;28;20046;-95
2021/06/19 07:22:44;;;;;;;15.63;9.90;;;;;;;25.44;53.71;99013.88;5117231;28;20039;-94
2021/06/19 07:25:11;;;;;;;13.32;8.98;;;;;;;25.72;52.61;99004.22;5099852;28;20070;-95
2021/06/19 07:27:38;;;;;;;15.30;10.02;;;;;;;26.39;49.69;98998.34;5095614;28;20048;-93
2021/06/19 07:30:05;;;;;;;12.40;9.57;;;;;;;26.90;48.84;99006.59;5095816;28;20038;-95
2021/06/19 07:32:31;;;;;;;14.23;9.75;;;;;;;27.35;47.17;99008.88;5095863;28;20048;-94
2021/06/19 07:34:58;;;;;;;14.60;9.20;;;;;;;27.90;46.69;99008.31;5096863;28;20081;-94
2021/06/19 07:37:24;;;;;;;13.88;9.10;;;;;;;28.40;45.01;98991.63;5095723;28;20496;-94
2021/06/19 07:39:53;;;;;;;13.30;9.00;;;;;;;28.73;44.28;98990.19;5095349;28;20064;-95
2021/06/19 07:42:22;;;;;;;13.68;8.48;;;;;;;28.98;43.16;98987.78;5095531;28;20048;-94
2021/06/19 07:44:49;;;;;;;12.75;8.93;;;;;;;29.21;42.78;98989.09;5095120;28;20059;-94
2021/06/19 07:47:15;;;;;;;12.55;8.43;;;;;;;28.45;44.69;98986.56;5095891;28;20241;-95
2021/06/19 07:49:41;;;;;;;12.90;9.13;;;;;;;28.33;44.60;98991.38;5095714;28;20047;-94
2021/06/19 07:52:08;;;;;;;13.80;9.63;;;;;;;28.59;43.89;99013.47;5102662;28;20040;-95
2021/06/19 07:54:37;;;;;;;12.55;9.23;;;;;;;27.59;46.00;99000.25;5101726;28;20044;-92
2021/06/19 07:57:04;;;;;;;13.48;8.38;;;;;;;27.33;48.08;99006.28;5093634;28;20058;-95
2021/06/19 07:59:30;;;;;;;12.52;9.02;;;;;;;27.66;47.19;98980.38;5095474;28;20039;-92
2021/06/19 08:01:56;;;;;;;13.23;9.02;;;;;;;28.03;46.01;99001.50;5095153;28;20130;-94
2021/06/19 08:04:22;;;;;;;12.63;9.20;;;;;;;28.13;45.92;99012.44;5095322;28;20040;-92
2021/06/19 08:06:48;;;;;;;10.82;8.05;;;;;;;28.21;45.91;99011.69;5095354;28;20032;-93
2021/06/19 08:09:15;;;;;;;13.52;8.80;;;;;;;28.22;45.56;99013.44;5094939;28;20064;-95
2021/06/19 08:11:45;;;;;;;12.88;7.85;;;;;;;28.17;44.97;99002.06;5098456;28;20040;-96
2021/06/19 08:14:14;;;;;;;11.82;9.18;;;;;;;28.24;45.23;99006.78;5098155;28;20051;-96
2021/06/19 08:16:40;;;;;;;13.70;8.90;;;;;;;27.46;45.63;99006.00;5097982;28;20051;-95
2021/06/19 08:19:06;;;;;;;11.85;9.23;;;;;;;27.40;45.90;99006.56;5099087;28;20051;-93
2021/06/19 08:21:32;;;;;;;12.00;9.50;;;;;;;27.36;46.40;99010.59;5097794;28;20046;-92
2021/06/19 08:23:58;;;;;;;15.27;9.00;;;;;;;27.49;46.16;99013.03;5097959;28;20048;-95
2021/06/19 08:26:26;;;;;;;13.32;8.80;;;;;;;27.23;45.92;98972.63;5098077;28;20393;-95
2021/06/19 08:28:52;;;;;;;14.30;10.68;;;;;;;27.05;47.67;98994.28;5098111;28;20562;-94
2021/06/19 08:31:18;;;;;;;16.92;10.90;;;;;;;27.15;47.20;98991.56;5096476;28;20040;-93
2021/06/19 08:33:47;;;;;;;17.90;10.80;;;;;;;27.20;46.73;98981.09;5096806;28;20556;-95
2021/06/19 08:36:13;;;;;;;14.95;9.43;;;;;;;26.90;47.85;98992.97;5098154;28;20043;-95
2021/06/19 08:38:41;;;;;;;11.95;9.23;;;;;;;26.98;47.58;99001.31;5101407;28;20140;-96
2021/06/19 08:41:12;;;;;;;12.57;9.40;;;;;;;27.29;47.76;98976.69;5104468;28;20040;-95
2021/06/19 08:43:42;;;;;;;13.65;9.07;;;;;;;26.98;47.33;98996.72;5099763;28;20562;-95
2021/06/19 08:46:13;;;;;;;12.38;8.70;;;;;;;26.59;48.07;98968.47;5097089;28;20047;-96
2021/06/19 08:48:50;;;;;;;12.70;8.48;;;;;;;26.86;46.08;98961.50;5097896;28;20040;-96
2021/06/19 08:51:23;;;;;;;14.82;8.05;;;;;;;26.58;47.73;98961.28;5102531;28;20071;-96
2021/06/19 08:53:50;;;;;;;42.38;11.82;;;;;;;26.44;48.75;98954.31;5105980;28;20052;-95
2021/06/19 08:56:22;;;;;;;12.40;8.85;;;;;;;26.78;47.84;98954.00;5106551;28;20044;-95
2021/06/19 08:58:57;;;;;;;15.55;9.80;;;;;;;26.95;48.09;98942.41;5105505;28;20040;-96
2021/06/19 09:01:26;;;;;;;85.90;15.25;;;;;;;27.12;45.51;98937.25;5107105;28;20104;-95
2021/06/19 09:04:03;;;;;;;16.33;8.70;;;;;;;26.92;46.03;98941.84;5107847;28;20044;-96
2021/06/19 09:06:30;;;;;;;13.07;8.20;;;;;;;27.36;45.34;98939.59;5105304;28;20051;-96
2021/06/19 09:09:05;;;;;;;11.93;7.82;;;;;;;28.11;43.84;98958.91;5104660;28;20056;-96
2021/06/19 09:11:37;;;;;;;11.65;7.82;;;;;;;28.68;42.17;98963.28;5103362;28;20036;-95
2021/06/19 09:14:08;;;;;;;9.88;7.35;;;;;;;28.93;42.60;98941.69;5103140;28;20040;-96
2021/06/19 09:16:40;;;;;;;12.35;8.18;;;;;;;29.32;41.36;98933.22;5104457;28;20119;-96
2021/06/19 09:19:24;;;;;;;14.65;8.30;;;;;;;29.71;39.27;98935.59;5102183;28;20044;-95
2021/06/19 09:22:22;;;;;;;10.77;7.75;;;;;;;28.57;40.74;98927.06;5101985;28;20131;-95
2021/06/19 09:24:53;;;;;;;12.75;7.97;;;;;;;28.71;40.97;98948.44;5103782;28;20106;-95
2021/06/19 09:27:31;;;;;;;9.90;7.90;;;;;;;28.85;41.78;98945.19;5103318;28;20055;-96
2021/06/19 09:30:27;;;;;;;11.52;7.85;;;;;;;29.04;40.34;98940.63;5107752;28;20508;-96
2021/06/19 09:33:20;;;;;;;8.35;5.80;;;;;;;28.77;36.30;98934.16;5108261;28;20036;-96
2021/06/19 09:36:46;;;;;;;11.05;7.20;;;;;;;28.87;38.26;98973.28;5108683;28;20036;-96
2021/06/19 09:39:21;;;;;;;9.98;6.93;;;;;;;28.57;39.49;98929.81;5108394;28;20044;-96
2021/06/19 09:42:07;;;;;;;9.50;6.40;;;;;;;29.13;37.48;98926.00;5107408;28;20036;-95
2021/06/19 10:04:37;;;;;;;6.82;4.35;;;;;;;30.76;27.44;98919.91;6199862;23;20012;-96
2021/06/19 10:07:34;;;;;;;8.23;4.88;;;;;;;30.55;27.70;98923.09;6202547;22;20072;-95
2021/06/19 10:10:32;;;;;;;10.20;5.13;;;;;;;30.39;29.29;98904.69;6152479;23;20392;-95
2021/06/19 10:17:06;;;;;;;8.35;5.85;;;;;;;29.83;31.15;98906.06;6083813;23;20026;-95
2021/06/19 10:19:54;;;;;;;8.13;5.82;;;;;;;29.49;30.81;98915.03;6084365;23;20514;-95
2021/06/19 10:25:20;;;;;;;7.72;4.93;;;;;;;29.70;28.58;98909.22;6185276;22;20512;-95
2021/06/19 10:27:49;;;;;;;7.15;4.90;;;;;;;29.67;27.33;98935.03;6167989;23;20049;-96
2021/06/19 10:30:16;;;;;;;7.25;4.57;;;;;;;29.16;26.68;98936.66;6163841;23;20028;-96
2021/06/19 10:32:50;;;;;;;7.68;4.70;;;;;;;28.83;28.43;98905.31;6165948;23;20032;-96
2021/06/19 10:35:57;;;;;;;12.77;5.05;;;;;;;29.31;28.94;98890.41;6172704;22;20466;-94
2021/06/19 10:38:51;;;;;;;7.00;4.57;;;;;;;29.60;27.48;98889.25;6172290;23;20021;-96
2021/06/19 10:42:14;;;;;;;;;;;;;;;;;;;;;
2021/06/19 10:45:45;;;;;;;;;;;;;;;;;;;;;
2021/06/19 10:48:32;;;;;;;7.50;4.43;;;;;;;30.64;27.53;98886.44;6111367;23;20032;-95
2021/06/19 10:59:24;;;;;;;9.43;5.97;;;;;;;30.18;29.57;98887.75;6257911;22;19915;-95
2021/06/19 11:11:12;;;;;;;10.25;5.05;;;;;;;30.82;26.72;98878.06;6109579;23;20049;-95
2021/06/19 11:17:04;;;;;;;7.18;5.20;;;;;;;30.61;29.11;98855.72;6101870;23;20085;-96
2021/06/19 11:41:56;;;;;;;7.78;5.15;;;;;;;31.68;27.68;98842.91;4983753;28;20053;-95
2021/06/19 11:51:16;;;;;;;6.70;5.22;;;;;;;31.39;28.30;98848.94;4901750;29;20098;-95
2021/06/19 11:56:54;;;;;;;8.35;6.15;;;;;;;31.20;29.20;98828.16;4895872;29;20037;-95
2021/06/19 11:59:34;;;;;;;7.72;5.78;;;;;;;31.64;28.45;98853.44;4909642;29;20186;-96
2021/06/19 12:19:18;;;;;;;8.45;5.70;;;;;;;32.00;28.98;98852.16;4891758;29;20147;-95
2021/06/19 12:26:04;;;;;;;6.28;5.00;;;;;;;31.77;27.50;98830.00;4874035;29;20075;-95
2021/06/19 12:28:44;;;;;;;8.27;5.90;;;;;;;31.63;28.13;98832.44;4940455;28;20079;-96
2021/06/19 12:39:06;;;;;;;7.68;5.68;;;;;;;32.07;27.69;98821.00;4893880;29;20041;-95
2021/06/19 12:48:03;;;;;;;7.05;4.18;;;;;;;31.31;23.96;98820.44;4965344;29;20031;-94
2021/06/19 12:50:40;;;;;;;7.15;4.60;;;;;;;31.39;24.42;98826.97;4966500;28;20397;-95
2021/06/19 12:53:24;;;;;;;6.10;4.18;;;;;;;31.66;22.94;98820.25;5007143;28;20054;-96
2021/06/19 13:03:24;;;;;;;7.75;3.90;;;;;;;32.63;21.44;98825.56;4974744;28;20043;-96
2021/06/19 13:06:05;;;;;;;5.38;4.30;;;;;;;31.76;24.33;98820.06;4972516;29;20063;-96
2021/06/19 13:15:04;;;;;;;5.65;4.00;;;;;;;31.89;24.00;98829.47;5043738;28;20045;-96
2021/06/19 13:18:46;;;;;;;;;;;;;;;;;;;;;
2021/06/19 13:21:20;;;;;;;7.75;4.63;;;;;;;32.36;23.55;98803.00;5071191;28;20128;-96
2021/06/19 13:23:59;;;;;;;6.53;4.20;;;;;;;32.48;24.52;98812.53;5071952;28;20054;-95
2021/06/19 15:37:03;;;;;;;6.72;4.18;;;;;;;32.22;26.75;98718.44;1138689;22;20300;-91
2021/06/19 15:40:08;;;;;;;8.32;4.57;;;;;;;32.47;26.55;98724.66;5111386;28;20092;-96
2021/06/19 16:52:53;;;;;;;9.98;5.78;;;;;;;30.54;32.71;98663.41;4998776;28;20050;-96
2021/06/19 17:02:08;;;;;;;;;;;;;;;;;;;;;
2021/06/19 17:12:43;;;;;;;7.50;5.47;;;;;;;30.04;32.60;98700.88;4881300;29;20037;-96
2021/06/19 17:47:14;;;;;;;9.43;5.75;;;;;;;28.36;37.65;98673.78;5118391;28;20103;-95
2021/06/19 17:50:46;;;;;;;8.40;5.72;;;;;;;28.41;37.90;98719.81;5117352;28;20046;-96
2021/06/19 18:29:08;;;;;;;9.70;6.50;;;;;;;27.20;41.75;98684.38;5114619;28;20100;-96
2021/06/19 18:31:55;;;;;;;9.05;6.07;;;;;;;26.95;41.93;98663.19;5112886;28;20042;-94
2021/06/19 20:08:18;;;;;;;9.90;5.95;;;;;;;24.87;43.19;98738.41;1037077;22;20300;-94
2021/06/19 20:11:03;;;;;;;9.23;5.72;;;;;;;24.75;43.58;98726.75;5068906;28;20063;-95
2021/06/19 20:14:07;;;;;;;7.57;5.78;;;;;;;24.94;42.86;98740.47;5070766;28;20063;-96